sensor_id;sensor_type;location;lat;lon;timestamp;P1;durP1;ratioP1;P2;durP2;ratioP2
70985;SDS011;58645;43.068;25.610;2023-05-15T00:00:33;5.00;;;3.83;;
70985;SDS011;58645;43.068;25.610;2023-05-15T00:02:59;15.52;;;5.03;;
70985;SDS011;58645;43.068;25.610;2023-05-15T00:05:24;7.78;;;4.70;;
70985;SDS011;58645;43.068;25.610;2023-05-15T00:07:50;9.18;;;5.35;;
70985;SDS011;58645;43.068;25.610;2023-05-15T00:10:16;7.63;;;4.43;;
70985;SDS011;58645;43.068;25.610;2023-05-15T00:12:42;11.38;;;6.53;;
70985;SDS011;58645;43.068;25.610;2023-05-15T00:15:07;5.68;;;3.13;;
70985;SDS011;58645;43.068;25.610;2023-05-15T00:17:33;5.15;;;2.35;;
70985;SDS011;58645;43.068;25.610;2023-05-15T00:19:59;4.47;;;2.08;;
70985;SDS011;58645;43.068;25.610;2023-05-15T00:22:25;5.88;;;2.17;;
70985;SDS011;58645;43.068;25.610;2023-05-15T00:24:51;5.50;;;3.20;;
70985;SDS011;58645;43.068;25.610;2023-05-15T00:27:17;6.35;;;3.88;;
70985;SDS011;58645;43.068;25.610;2023-05-15T00:29:42;12.13;;;3.83;;
70985;SDS011;58645;43.068;25.610;2023-05-15T00:32:08;7.03;;;3.53;;
70985;SDS011;58645;43.068;25.610;2023-05-15T00:34:34;11.20;;;5.53;;
70985;SDS011;58645;43.068;25.610;2023-05-15T00:37:00;10.52;;;4.57;;
70985;SDS011;58645;43.068;25.610;2023-05-15T00:39:25;6.30;;;3.40;;
70985;SDS011;58645;43.068;25.610;2023-05-15T00:41:51;7.45;;;3.83;;
70985;SDS011;58645;43.068;25.610;2023-05-15T00:44:18;5.03;;;3.15;;
70985;SDS011;58645;43.068;25.610;2023-05-15T00:46:45;4.70;;;2.72;;
70985;SDS011;58645;43.068;25.610;2023-05-15T00:49:12;8.23;;;4.47;;
70985;SDS011;58645;43.068;25.610;2023-05-15T00:51:41;7.07;;;4.32;;
70985;SDS011;58645;43.068;25.610;2023-05-15T00:54:08;9.20;;;5.05;;
70985;SDS011;58645;43.068;25.610;2023-05-15T00:56:34;6.72;;;5.43;;
70985;SDS011;58645;43.068;25.610;2023-05-15T01:01:27;9.18;;;4.53;;
70985;SDS011;58645;43.068;25.610;2023-05-15T01:03:59;9.43;;;4.57;;
70985;SDS011;58645;43.068;25.610;2023-05-15T01:06:26;12.45;;;5.63;;
70985;SDS011;58645;43.068;25.610;2023-05-15T01:08:53;6.32;;;4.43;;
70985;SDS011;58645;43.068;25.610;2023-05-15T01:11:23;8.38;;;4.55;;
70985;SDS011;58645;43.068;25.610;2023-05-15T01:13:51;10.45;;;5.32;;
70985;SDS011;58645;43.068;25.610;2023-05-15T01:16:17;5.40;;;4.03;;
70985;SDS011;58645;43.068;25.610;2023-05-15T01:18:45;7.28;;;4.35;;
70985;SDS011;58645;43.068;25.610;2023-05-15T01:29:39;16.17;;;4.20;;
70985;SDS011;58645;43.068;25.610;2023-05-15T01:32:09;9.13;;;3.85;;
70985;SDS011;58645;43.068;25.610;2023-05-15T01:37:16;6.70;;;4.32;;
70985;SDS011;58645;43.068;25.610;2023-05-15T01:39:46;9.60;;;4.20;;
70985;SDS011;58645;43.068;25.610;2023-05-15T01:42:17;6.88;;;3.88;;
70985;SDS011;58645;43.068;25.610;2023-05-15T01:44:52;7.50;;;4.10;;
70985;SDS011;58645;43.068;25.610;2023-05-15T01:47:28;13.90;;;4.88;;
70985;SDS011;58645;43.068;25.610;2023-05-15T01:49:59;8.48;;;4.63;;
70985;SDS011;58645;43.068;25.610;2023-05-15T01:52:31;6.95;;;3.83;;
70985;SDS011;58645;43.068;25.610;2023-05-15T01:54:59;7.85;;;5.03;;
70985;SDS011;58645;43.068;25.610;2023-05-15T01:57:27;7.45;;;3.45;;
70985;SDS011;58645;43.068;25.610;2023-05-15T01:59:53;14.43;;;4.68;;
70985;SDS011;58645;43.068;25.610;2023-05-15T02:02:20;9.70;;;4.43;;
70985;SDS011;58645;43.068;25.610;2023-05-15T02:04:47;6.65;;;4.25;;
70985;SDS011;58645;43.068;25.610;2023-05-15T02:07:14;9.35;;;4.32;;
70985;SDS011;58645;43.068;25.610;2023-05-15T02:12:07;5.80;;;3.95;;
70985;SDS011;58645;43.068;25.610;2023-05-15T02:14:34;8.77;;;5.15;;
70985;SDS011;58645;43.068;25.610;2023-05-15T02:17:00;9.57;;;5.10;;
70985;SDS011;58645;43.068;25.610;2023-05-15T02:19:26;10.85;;;5.05;;
70985;SDS011;58645;43.068;25.610;2023-05-15T02:21:53;15.57;;;7.82;;
70985;SDS011;58645;43.068;25.610;2023-05-15T02:24:19;9.35;;;5.25;;
70985;SDS011;58645;43.068;25.610;2023-05-15T02:26:55;11.30;;;6.28;;
70985;SDS011;58645;43.068;25.610;2023-05-15T02:38:02;7.35;;;4.47;;
70985;SDS011;58645;43.068;25.610;2023-05-15T02:40:35;7.25;;;4.05;;
70985;SDS011;58645;43.068;25.610;2023-05-15T02:43:02;10.60;;;4.32;;
70985;SDS011;58645;43.068;25.610;2023-05-15T02:45:28;7.97;;;4.85;;
70985;SDS011;58645;43.068;25.610;2023-05-15T02:47:56;7.47;;;4.80;;
70985;SDS011;58645;43.068;25.610;2023-05-15T02:50:22;8.75;;;5.57;;
70985;SDS011;58645;43.068;25.610;2023-05-15T02:52:49;9.35;;;5.05;;
70985;SDS011;58645;43.068;25.610;2023-05-15T02:55:15;11.65;;;6.05;;
70985;SDS011;58645;43.068;25.610;2023-05-15T02:57:40;11.05;;;5.40;;
70985;SDS011;58645;43.068;25.610;2023-05-15T03:00:06;9.50;;;5.63;;
70985;SDS011;58645;43.068;25.610;2023-05-15T03:02:36;9.73;;;5.68;;
70985;SDS011;58645;43.068;25.610;2023-05-15T03:05:02;11.30;;;6.78;;
70985;SDS011;58645;43.068;25.610;2023-05-15T03:07:28;11.38;;;5.72;;
70985;SDS011;58645;43.068;25.610;2023-05-15T03:09:54;11.30;;;5.22;;
70985;SDS011;58645;43.068;25.610;2023-05-15T03:12:20;8.38;;;5.82;;
70985;SDS011;58645;43.068;25.610;2023-05-15T03:14:45;10.73;;;5.28;;
70985;SDS011;58645;43.068;25.610;2023-05-15T03:17:11;10.13;;;6.63;;
70985;SDS011;58645;43.068;25.610;2023-05-15T03:19:37;11.93;;;6.40;;
70985;SDS011;58645;43.068;25.610;2023-05-15T03:22:02;13.60;;;5.25;;
70985;SDS011;58645;43.068;25.610;2023-05-15T03:24:28;11.80;;;5.22;;
70985;SDS011;58645;43.068;25.610;2023-05-15T03:26:54;7.63;;;4.75;;
70985;SDS011;58645;43.068;25.610;2023-05-15T03:29:19;11.80;;;7.05;;
70985;SDS011;58645;43.068;25.610;2023-05-15T03:31:45;14.32;;;6.30;;
70985;SDS011;58645;43.068;25.610;2023-05-15T03:34:11;12.95;;;6.20;;
70985;SDS011;58645;43.068;25.610;2023-05-15T03:36:36;9.82;;;5.43;;
70985;SDS011;58645;43.068;25.610;2023-05-15T03:39:02;9.68;;;5.38;;
70985;SDS011;58645;43.068;25.610;2023-05-15T03:41:28;7.43;;;4.57;;
70985;SDS011;58645;43.068;25.610;2023-05-15T03:43:54;20.88;;;9.50;;
70985;SDS011;58645;43.068;25.610;2023-05-15T03:46:20;13.60;;;9.48;;
70985;SDS011;58645;43.068;25.610;2023-05-15T03:48:46;23.77;;;14.48;;
70985;SDS011;58645;43.068;25.610;2023-05-15T03:51:11;25.42;;;13.82;;
70985;SDS011;58645;43.068;25.610;2023-05-15T03:53:37;23.80;;;13.27;;
70985;SDS011;58645;43.068;25.610;2023-05-15T03:56:03;10.55;;;5.70;;
70985;SDS011;58645;43.068;25.610;2023-05-15T03:58:29;15.95;;;9.65;;
70985;SDS011;58645;43.068;25.610;2023-05-15T04:00:58;12.77;;;7.28;;
70985;SDS011;58645;43.068;25.610;2023-05-15T04:03:24;17.63;;;10.13;;
70985;SDS011;58645;43.068;25.610;2023-05-15T04:05:49;16.00;;;7.85;;
70985;SDS011;58645;43.068;25.610;2023-05-15T04:08:16;13.02;;;8.00;;
70985;SDS011;58645;43.068;25.610;2023-05-15T04:10:41;15.25;;;6.72;;
70985;SDS011;58645;43.068;25.610;2023-05-15T04:13:07;12.50;;;6.90;;
70985;SDS011;58645;43.068;25.610;2023-05-15T04:15:33;15.45;;;8.40;;
70985;SDS011;58645;43.068;25.610;2023-05-15T04:17:59;14.35;;;7.55;;
70985;SDS011;58645;43.068;25.610;2023-05-15T04:20:25;13.90;;;8.05;;
70985;SDS011;58645;43.068;25.610;2023-05-15T04:22:51;13.65;;;7.93;;
70985;SDS011;58645;43.068;25.610;2023-05-15T04:25:17;20.20;;;9.60;;
70985;SDS011;58645;43.068;25.610;2023-05-15T04:27:44;15.02;;;9.10;;
70985;SDS011;58645;43.068;25.610;2023-05-15T04:30:11;17.42;;;8.85;;
70985;SDS011;58645;43.068;25.610;2023-05-15T04:32:37;12.70;;;8.13;;
70985;SDS011;58645;43.068;25.610;2023-05-15T04:35:04;18.38;;;9.52;;
70985;SDS011;58645;43.068;25.610;2023-05-15T04:37:34;21.10;;;11.13;;
70985;SDS011;58645;43.068;25.610;2023-05-15T04:40:03;17.67;;;10.40;;
70985;SDS011;58645;43.068;25.610;2023-05-15T04:42:31;25.92;;;10.00;;
70985;SDS011;58645;43.068;25.610;2023-05-15T04:44:57;18.77;;;10.10;;
70985;SDS011;58645;43.068;25.610;2023-05-15T04:47:22;18.33;;;10.68;;
70985;SDS011;58645;43.068;25.610;2023-05-15T04:49:49;20.88;;;11.82;;
70985;SDS011;58645;43.068;25.610;2023-05-15T04:52:15;16.65;;;9.48;;
70985;SDS011;58645;43.068;25.610;2023-05-15T04:54:41;14.48;;;6.90;;
70985;SDS011;58645;43.068;25.610;2023-05-15T04:57:07;16.55;;;8.05;;
70985;SDS011;58645;43.068;25.610;2023-05-15T05:02:43;14.98;;;9.68;;
70985;SDS011;58645;43.068;25.610;2023-05-15T05:05:11;14.68;;;9.27;;
70985;SDS011;58645;43.068;25.610;2023-05-15T05:07:39;16.05;;;8.95;;
70985;SDS011;58645;43.068;25.610;2023-05-15T05:10:21;17.90;;;9.50;;
70985;SDS011;58645;43.068;25.610;2023-05-15T05:12:59;15.20;;;9.07;;
70985;SDS011;58645;43.068;25.610;2023-05-15T05:15:28;8.73;;;4.75;;
70985;SDS011;58645;43.068;25.610;2023-05-15T05:17:53;7.75;;;4.50;;
70985;SDS011;58645;43.068;25.610;2023-05-15T05:20:19;19.40;;;9.82;;
70985;SDS011;58645;43.068;25.610;2023-05-15T05:22:45;11.65;;;7.00;;
70985;SDS011;58645;43.068;25.610;2023-05-15T05:25:19;13.73;;;6.45;;
70985;SDS011;58645;43.068;25.610;2023-05-15T05:27:48;11.80;;;6.32;;
70985;SDS011;58645;43.068;25.610;2023-05-15T05:30:17;14.95;;;7.82;;
70985;SDS011;58645;43.068;25.610;2023-05-15T05:32:45;14.10;;;7.82;;
70985;SDS011;58645;43.068;25.610;2023-05-15T05:35:16;12.23;;;5.88;;
70985;SDS011;58645;43.068;25.610;2023-05-15T05:37:42;19.58;;;7.28;;
70985;SDS011;58645;43.068;25.610;2023-05-15T05:40:09;14.70;;;6.43;;
70985;SDS011;58645;43.068;25.610;2023-05-15T05:42:35;21.55;;;7.90;;
70985;SDS011;58645;43.068;25.610;2023-05-15T05:45:01;17.85;;;6.82;;
70985;SDS011;58645;43.068;25.610;2023-05-15T05:47:42;14.52;;;5.88;;
70985;SDS011;58645;43.068;25.610;2023-05-15T05:50:09;14.80;;;6.60;;
70985;SDS011;58645;43.068;25.610;2023-05-15T05:52:35;14.02;;;7.22;;
70985;SDS011;58645;43.068;25.610;2023-05-15T05:55:01;14.43;;;5.20;;
70985;SDS011;58645;43.068;25.610;2023-05-15T05:57:27;13.63;;;6.20;;
70985;SDS011;58645;43.068;25.610;2023-05-15T05:59:55;9.90;;;5.05;;
70985;SDS011;58645;43.068;25.610;2023-05-15T06:02:21;11.13;;;7.50;;
70985;SDS011;58645;43.068;25.610;2023-05-15T06:04:47;9.68;;;6.70;;
70985;SDS011;58645;43.068;25.610;2023-05-15T06:07:20;9.98;;;5.47;;
70985;SDS011;58645;43.068;25.610;2023-05-15T06:09:47;9.30;;;6.28;;
70985;SDS011;58645;43.068;25.610;2023-05-15T06:12:13;9.52;;;4.47;;
70985;SDS011;58645;43.068;25.610;2023-05-15T06:14:39;12.35;;;7.55;;
70985;SDS011;58645;43.068;25.610;2023-05-15T06:17:05;12.98;;;7.20;;
70985;SDS011;58645;43.068;25.610;2023-05-15T06:19:35;12.73;;;8.90;;
70985;SDS011;58645;43.068;25.610;2023-05-15T06:22:01;12.63;;;7.43;;
70985;SDS011;58645;43.068;25.610;2023-05-15T06:24:26;9.40;;;6.38;;
70985;SDS011;58645;43.068;25.610;2023-05-15T06:26:52;8.55;;;4.38;;
70985;SDS011;58645;43.068;25.610;2023-05-15T06:29:18;5.53;;;3.35;;
70985;SDS011;58645;43.068;25.610;2023-05-15T06:31:46;6.88;;;3.03;;
70985;SDS011;58645;43.068;25.610;2023-05-15T06:34:11;5.78;;;2.80;;
70985;SDS011;58645;43.068;25.610;2023-05-15T06:36:37;7.78;;;2.85;;
70985;SDS011;58645;43.068;25.610;2023-05-15T06:39:07;3.80;;;2.35;;
70985;SDS011;58645;43.068;25.610;2023-05-15T06:41:41;5.90;;;2.20;;
70985;SDS011;58645;43.068;25.610;2023-05-15T06:44:07;4.35;;;2.35;;
70985;SDS011;58645;43.068;25.610;2023-05-15T06:46:33;4.90;;;2.25;;
70985;SDS011;58645;43.068;25.610;2023-05-15T06:48:59;3.35;;;2.13;;
70985;SDS011;58645;43.068;25.610;2023-05-15T06:51:24;4.70;;;2.30;;
70985;SDS011;58645;43.068;25.610;2023-05-15T06:53:53;7.90;;;2.40;;
70985;SDS011;58645;43.068;25.610;2023-05-15T06:58:48;4.22;;;2.35;;
70985;SDS011;58645;43.068;25.610;2023-05-15T07:03:40;5.65;;;2.17;;
70985;SDS011;58645;43.068;25.610;2023-05-15T07:06:07;3.78;;;2.50;;
70985;SDS011;58645;43.068;25.610;2023-05-15T07:10:58;4.78;;;2.22;;
70985;SDS011;58645;43.068;25.610;2023-05-15T07:13:27;6.63;;;2.10;;
70985;SDS011;58645;43.068;25.610;2023-05-15T07:15:53;4.63;;;2.08;;
70985;SDS011;58645;43.068;25.610;2023-05-15T07:18:19;4.43;;;2.08;;
70985;SDS011;58645;43.068;25.610;2023-05-15T07:23:11;3.55;;;2.33;;
70985;SDS011;58645;43.068;25.610;2023-05-15T07:25:37;7.68;;;3.33;;
70985;SDS011;58645;43.068;25.610;2023-05-15T07:28:03;6.53;;;3.20;;
70985;SDS011;58645;43.068;25.610;2023-05-15T07:30:29;4.80;;;2.40;;
70985;SDS011;58645;43.068;25.610;2023-05-15T07:32:55;4.60;;;2.28;;
70985;SDS011;58645;43.068;25.610;2023-05-15T07:35:20;4.18;;;2.42;;
70985;SDS011;58645;43.068;25.610;2023-05-15T07:37:46;4.60;;;2.40;;
70985;SDS011;58645;43.068;25.610;2023-05-15T07:40:12;7.40;;;2.53;;
70985;SDS011;58645;43.068;25.610;2023-05-15T07:42:39;7.70;;;3.45;;
70985;SDS011;58645;43.068;25.610;2023-05-15T07:45:09;4.30;;;2.42;;
70985;SDS011;58645;43.068;25.610;2023-05-15T07:47:35;4.03;;;2.50;;
70985;SDS011;58645;43.068;25.610;2023-05-15T07:50:01;5.30;;;2.65;;
70985;SDS011;58645;43.068;25.610;2023-05-15T07:52:27;5.30;;;2.30;;
70985;SDS011;58645;43.068;25.610;2023-05-15T07:54:53;5.93;;;2.22;;
70985;SDS011;58645;43.068;25.610;2023-05-15T07:57:19;4.38;;;2.38;;
70985;SDS011;58645;43.068;25.610;2023-05-15T08:02:13;3.50;;;2.03;;
70985;SDS011;58645;43.068;25.610;2023-05-15T08:04:39;7.13;;;2.10;;
70985;SDS011;58645;43.068;25.610;2023-05-15T08:09:34;6.07;;;2.45;;
70985;SDS011;58645;43.068;25.610;2023-05-15T08:12:19;5.68;;;2.30;;
70985;SDS011;58645;43.068;25.610;2023-05-15T08:14:49;4.75;;;2.30;;
70985;SDS011;58645;43.068;25.610;2023-05-15T08:17:17;4.93;;;2.20;;
70985;SDS011;58645;43.068;25.610;2023-05-15T08:19:43;5.80;;;2.10;;
70985;SDS011;58645;43.068;25.610;2023-05-15T08:22:09;3.25;;;2.10;;
70985;SDS011;58645;43.068;25.610;2023-05-15T08:24:37;4.53;;;2.38;;
70985;SDS011;58645;43.068;25.610;2023-05-15T08:27:06;3.63;;;2.13;;
70985;SDS011;58645;43.068;25.610;2023-05-15T08:29:36;5.95;;;2.50;;
70985;SDS011;58645;43.068;25.610;2023-05-15T08:32:03;5.82;;;2.25;;
70985;SDS011;58645;43.068;25.610;2023-05-15T08:34:30;4.30;;;2.28;;
70985;SDS011;58645;43.068;25.610;2023-05-15T08:36:57;4.25;;;1.90;;
70985;SDS011;58645;43.068;25.610;2023-05-15T08:39:23;3.38;;;1.90;;
70985;SDS011;58645;43.068;25.610;2023-05-15T08:44:57;6.50;;;2.15;;
70985;SDS011;58645;43.068;25.610;2023-05-15T08:47:25;5.30;;;2.08;;
70985;SDS011;58645;43.068;25.610;2023-05-15T08:50:03;5.20;;;2.15;;
70985;SDS011;58645;43.068;25.610;2023-05-15T08:52:32;5.13;;;2.10;;
70985;SDS011;58645;43.068;25.610;2023-05-15T08:54:58;4.95;;;2.28;;
70985;SDS011;58645;43.068;25.610;2023-05-15T08:57:25;6.70;;;2.40;;
70985;SDS011;58645;43.068;25.610;2023-05-15T08:59:56;5.45;;;2.33;;
70985;SDS011;58645;43.068;25.610;2023-05-15T09:02:23;4.85;;;2.78;;
70985;SDS011;58645;43.068;25.610;2023-05-15T09:04:50;5.00;;;2.35;;
70985;SDS011;58645;43.068;25.610;2023-05-15T09:07:19;4.18;;;2.28;;
70985;SDS011;58645;43.068;25.610;2023-05-15T09:09:45;5.13;;;2.30;;
70985;SDS011;58645;43.068;25.610;2023-05-15T09:12:26;8.48;;;4.05;;
70985;SDS011;58645;43.068;25.610;2023-05-15T09:15:16;5.13;;;3.05;;
70985;SDS011;58645;43.068;25.610;2023-05-15T09:17:46;8.23;;;3.88;;
70985;SDS011;58645;43.068;25.610;2023-05-15T09:22:58;4.88;;;2.80;;
70985;SDS011;58645;43.068;25.610;2023-05-15T09:25:41;5.88;;;2.90;;
70985;SDS011;58645;43.068;25.610;2023-05-15T09:28:09;5.90;;;2.80;;
70985;SDS011;58645;43.068;25.610;2023-05-15T09:30:48;4.82;;;2.30;;
70985;SDS011;58645;43.068;25.610;2023-05-15T09:33:25;4.07;;;2.08;;
70985;SDS011;58645;43.068;25.610;2023-05-15T09:35:52;5.70;;;2.70;;
70985;SDS011;58645;43.068;25.610;2023-05-15T09:38:22;4.85;;;2.60;;
70985;SDS011;58645;43.068;25.610;2023-05-15T09:40:48;5.78;;;2.47;;
70985;SDS011;58645;43.068;25.610;2023-05-15T09:43:14;4.15;;;2.20;;
70985;SDS011;58645;43.068;25.610;2023-05-15T09:45:40;8.32;;;2.78;;
70985;SDS011;58645;43.068;25.610;2023-05-15T09:48:07;5.43;;;3.38;;
70985;SDS011;58645;43.068;25.610;2023-05-15T09:50:36;6.45;;;2.13;;
70985;SDS011;58645;43.068;25.610;2023-05-15T09:53:03;4.43;;;1.83;;
70985;SDS011;58645;43.068;25.610;2023-05-15T09:55:35;4.18;;;1.90;;
70985;SDS011;58645;43.068;25.610;2023-05-15T09:58:15;5.45;;;2.22;;
70985;SDS011;58645;43.068;25.610;2023-05-15T10:00:43;4.85;;;2.10;;
70985;SDS011;58645;43.068;25.610;2023-05-15T10:03:10;6.25;;;2.10;;
70985;SDS011;58645;43.068;25.610;2023-05-15T10:05:40;4.47;;;2.17;;
70985;SDS011;58645;43.068;25.610;2023-05-15T10:08:07;4.07;;;2.40;;
70985;SDS011;58645;43.068;25.610;2023-05-15T10:10:33;7.97;;;2.60;;
70985;SDS011;58645;43.068;25.610;2023-05-15T10:15:28;4.38;;;2.28;;
70985;SDS011;58645;43.068;25.610;2023-05-15T10:17:55;5.60;;;2.58;;
70985;SDS011;58645;43.068;25.610;2023-05-15T10:20:24;6.05;;;2.45;;
70985;SDS011;58645;43.068;25.610;2023-05-15T10:22:52;7.70;;;3.30;;
70985;SDS011;58645;43.068;25.610;2023-05-15T10:28:19;6.53;;;3.17;;
70985;SDS011;58645;43.068;25.610;2023-05-15T10:30:47;8.55;;;5.15;;
70985;SDS011;58645;43.068;25.610;2023-05-15T10:33:13;8.48;;;3.97;;
70985;SDS011;58645;43.068;25.610;2023-05-15T10:35:39;5.85;;;2.72;;
70985;SDS011;58645;43.068;25.610;2023-05-15T10:38:07;7.15;;;3.05;;
70985;SDS011;58645;43.068;25.610;2023-05-15T10:40:36;7.90;;;4.05;;
70985;SDS011;58645;43.068;25.610;2023-05-15T10:43:04;5.07;;;3.72;;
70985;SDS011;58645;43.068;25.610;2023-05-15T10:45:30;8.18;;;4.90;;
70985;SDS011;58645;43.068;25.610;2023-05-15T10:47:57;7.18;;;4.40;;
70985;SDS011;58645;43.068;25.610;2023-05-15T10:50:23;10.25;;;4.93;;
70985;SDS011;58645;43.068;25.610;2023-05-15T10:52:51;8.20;;;3.85;;
70985;SDS011;58645;43.068;25.610;2023-05-15T10:57:45;9.30;;;3.13;;
70985;SDS011;58645;43.068;25.610;2023-05-15T11:02:47;8.63;;;3.20;;
70985;SDS011;58645;43.068;25.610;2023-05-15T11:05:13;5.47;;;2.40;;
70985;SDS011;58645;43.068;25.610;2023-05-15T11:12:56;6.10;;;2.40;;
70985;SDS011;58645;43.068;25.610;2023-05-15T11:15:22;7.43;;;2.83;;
70985;SDS011;58645;43.068;25.610;2023-05-15T11:21:10;5.80;;;2.10;;
70985;SDS011;58645;43.068;25.610;2023-05-15T11:23:20;7.50;;;2.63;;
70985;SDS011;58645;43.068;25.610;2023-05-15T11:25:56;6.43;;;2.30;;
70985;SDS011;58645;43.068;25.610;2023-05-15T11:28:22;8.55;;;2.75;;
70985;SDS011;58645;43.068;25.610;2023-05-15T11:30:54;6.53;;;2.47;;
70985;SDS011;58645;43.068;25.610;2023-05-15T11:33:24;7.25;;;2.65;;
70985;SDS011;58645;43.068;25.610;2023-05-15T11:35:58;6.68;;;2.85;;
70985;SDS011;58645;43.068;25.610;2023-05-15T11:38:25;6.85;;;2.67;;
70985;SDS011;58645;43.068;25.610;2023-05-15T11:40:58;7.53;;;2.47;;
70985;SDS011;58645;43.068;25.610;2023-05-15T11:43:28;8.18;;;2.95;;
70985;SDS011;58645;43.068;25.610;2023-05-15T11:46:07;6.78;;;2.70;;
70985;SDS011;58645;43.068;25.610;2023-05-15T11:48:36;3.97;;;2.65;;
70985;SDS011;58645;43.068;25.610;2023-05-15T11:51:04;5.68;;;2.63;;
70985;SDS011;58645;43.068;25.610;2023-05-15T11:53:37;5.95;;;2.33;;
70985;SDS011;58645;43.068;25.610;2023-05-15T11:56:04;10.18;;;2.83;;
70985;SDS011;58645;43.068;25.610;2023-05-15T12:00:56;9.23;;;3.38;;
70985;SDS011;58645;43.068;25.610;2023-05-15T12:03:23;7.97;;;2.83;;
70985;SDS011;58645;43.068;25.610;2023-05-15T12:05:50;6.60;;;2.65;;
70985;SDS011;58645;43.068;25.610;2023-05-15T12:08:17;7.25;;;3.10;;
70985;SDS011;58645;43.068;25.610;2023-05-15T12:10:45;7.25;;;3.30;;
70985;SDS011;58645;43.068;25.610;2023-05-15T12:13:12;9.13;;;3.38;;
70985;SDS011;58645;43.068;25.610;2023-05-15T12:15:39;9.68;;;3.70;;
70985;SDS011;58645;43.068;25.610;2023-05-15T12:18:09;7.82;;;3.60;;
70985;SDS011;58645;43.068;25.610;2023-05-15T12:20:36;9.02;;;3.47;;
70985;SDS011;58645;43.068;25.610;2023-05-15T12:23:04;5.97;;;3.80;;
70985;SDS011;58645;43.068;25.610;2023-05-15T12:25:34;7.22;;;3.35;;
70985;SDS011;58645;43.068;25.610;2023-05-15T12:28:01;7.88;;;2.88;;
70985;SDS011;58645;43.068;25.610;2023-05-15T12:30:32;9.57;;;2.90;;
70985;SDS011;58645;43.068;25.610;2023-05-15T12:32:59;5.40;;;2.75;;
70985;SDS011;58645;43.068;25.610;2023-05-15T12:35:27;9.15;;;3.20;;
70985;SDS011;58645;43.068;25.610;2023-05-15T12:37:52;6.55;;;2.88;;
70985;SDS011;58645;43.068;25.610;2023-05-15T12:42:44;5.43;;;2.95;;
70985;SDS011;58645;43.068;25.610;2023-05-15T12:47:40;5.60;;;2.75;;
70985;SDS011;58645;43.068;25.610;2023-05-15T12:50:18;6.53;;;3.13;;
70985;SDS011;58645;43.068;25.610;2023-05-15T12:52:45;14.75;;;3.60;;
70985;SDS011;58645;43.068;25.610;2023-05-15T12:55:16;7.05;;;2.88;;
70985;SDS011;58645;43.068;25.610;2023-05-15T12:57:43;8.27;;;3.15;;
70985;SDS011;58645;43.068;25.610;2023-05-15T13:00:12;8.73;;;2.83;;
70985;SDS011;58645;43.068;25.610;2023-05-15T13:02:41;7.40;;;3.00;;
70985;SDS011;58645;43.068;25.610;2023-05-15T13:05:10;4.93;;;2.67;;
70985;SDS011;58645;43.068;25.610;2023-05-15T13:07:42;6.80;;;3.03;;
70985;SDS011;58645;43.068;25.610;2023-05-15T13:10:09;7.32;;;3.72;;
70985;SDS011;58645;43.068;25.610;2023-05-15T13:12:36;7.07;;;2.88;;
70985;SDS011;58645;43.068;25.610;2023-05-15T13:15:04;6.65;;;2.80;;
70985;SDS011;58645;43.068;25.610;2023-05-15T13:17:31;6.60;;;3.10;;
70985;SDS011;58645;43.068;25.610;2023-05-15T13:19:59;6.95;;;2.60;;
70985;SDS011;58645;43.068;25.610;2023-05-15T13:22:25;5.72;;;3.10;;
70985;SDS011;58645;43.068;25.610;2023-05-15T13:24:51;4.80;;;3.17;;
70985;SDS011;58645;43.068;25.610;2023-05-15T13:27:18;8.93;;;3.42;;
70985;SDS011;58645;43.068;25.610;2023-05-15T13:29:43;6.63;;;2.85;;
70985;SDS011;58645;43.068;25.610;2023-05-15T13:32:09;5.90;;;2.75;;
70985;SDS011;58645;43.068;25.610;2023-05-15T13:34:35;9.18;;;3.65;;
70985;SDS011;58645;43.068;25.610;2023-05-15T13:39:26;7.57;;;3.17;;
70985;SDS011;58645;43.068;25.610;2023-05-15T13:41:52;6.60;;;2.70;;
70985;SDS011;58645;43.068;25.610;2023-05-15T13:44:17;7.97;;;2.90;;
70985;SDS011;58645;43.068;25.610;2023-05-15T13:46:43;5.25;;;2.42;;
70985;SDS011;58645;43.068;25.610;2023-05-15T13:49:09;7.85;;;2.63;;
70985;SDS011;58645;43.068;25.610;2023-05-15T13:51:35;6.50;;;3.00;;
70985;SDS011;58645;43.068;25.610;2023-05-15T13:54:01;4.97;;;2.25;;
70985;SDS011;58645;43.068;25.610;2023-05-15T13:56:26;8.27;;;3.28;;
70985;SDS011;58645;43.068;25.610;2023-05-15T13:58:52;3.83;;;3.00;;
70985;SDS011;58645;43.068;25.610;2023-05-15T14:01:18;7.15;;;3.40;;
70985;SDS011;58645;43.068;25.610;2023-05-15T14:03:43;7.82;;;3.35;;
70985;SDS011;58645;43.068;25.610;2023-05-15T14:06:09;7.20;;;3.03;;
70985;SDS011;58645;43.068;25.610;2023-05-15T14:08:35;5.85;;;2.95;;
70985;SDS011;58645;43.068;25.610;2023-05-15T14:11:01;4.65;;;2.75;;
70985;SDS011;58645;43.068;25.610;2023-05-15T14:13:26;5.80;;;2.92;;
70985;SDS011;58645;43.068;25.610;2023-05-15T14:15:55;6.35;;;2.88;;
70985;SDS011;58645;43.068;25.610;2023-05-15T14:18:21;7.57;;;2.80;;
70985;SDS011;58645;43.068;25.610;2023-05-15T14:20:47;4.65;;;3.05;;
70985;SDS011;58645;43.068;25.610;2023-05-15T14:23:13;5.28;;;2.67;;
70985;SDS011;58645;43.068;25.610;2023-05-15T14:25:39;5.07;;;2.60;;
70985;SDS011;58645;43.068;25.610;2023-05-15T14:28:05;6.30;;;2.78;;
70985;SDS011;58645;43.068;25.610;2023-05-15T14:30:31;8.73;;;2.95;;
70985;SDS011;58645;43.068;25.610;2023-05-15T14:32:56;3.30;;;2.47;;
70985;SDS011;58645;43.068;25.610;2023-05-15T14:35:22;9.75;;;3.45;;
70985;SDS011;58645;43.068;25.610;2023-05-15T14:37:48;5.93;;;3.08;;
70985;SDS011;58645;43.068;25.610;2023-05-15T14:40:14;7.97;;;2.85;;
70985;SDS011;58645;43.068;25.610;2023-05-15T14:42:40;7.82;;;3.20;;
70985;SDS011;58645;43.068;25.610;2023-05-15T14:45:05;6.47;;;2.90;;
70985;SDS011;58645;43.068;25.610;2023-05-15T14:47:32;4.93;;;2.92;;
70985;SDS011;58645;43.068;25.610;2023-05-15T14:54:53;8.50;;;2.90;;
70985;SDS011;58645;43.068;25.610;2023-05-15T14:57:18;9.43;;;3.78;;
70985;SDS011;58645;43.068;25.610;2023-05-15T14:59:45;9.88;;;3.50;;
70985;SDS011;58645;43.068;25.610;2023-05-15T15:02:11;6.97;;;2.78;;
70985;SDS011;58645;43.068;25.610;2023-05-15T15:04:37;7.30;;;3.25;;
70985;SDS011;58645;43.068;25.610;2023-05-15T15:07:03;10.20;;;2.90;;
70985;SDS011;58645;43.068;25.610;2023-05-15T15:09:29;7.90;;;3.05;;
70985;SDS011;58645;43.068;25.610;2023-05-15T15:11:54;6.32;;;2.83;;
70985;SDS011;58645;43.068;25.610;2023-05-15T15:14:20;5.68;;;2.92;;
70985;SDS011;58645;43.068;25.610;2023-05-15T15:16:46;7.95;;;3.15;;
70985;SDS011;58645;43.068;25.610;2023-05-15T15:19:12;6.65;;;2.97;;
70985;SDS011;58645;43.068;25.610;2023-05-15T15:24:03;5.60;;;2.40;;
70985;SDS011;58645;43.068;25.610;2023-05-15T15:28:55;10.75;;;2.83;;
70985;SDS011;58645;43.068;25.610;2023-05-15T15:31:25;6.57;;;2.50;;
70985;SDS011;58645;43.068;25.610;2023-05-15T15:33:52;7.13;;;2.92;;
70985;SDS011;58645;43.068;25.610;2023-05-15T15:36:17;5.45;;;2.92;;
70985;SDS011;58645;43.068;25.610;2023-05-15T15:38:43;6.60;;;2.70;;
70985;SDS011;58645;43.068;25.610;2023-05-15T15:41:10;5.93;;;2.53;;
70985;SDS011;58645;43.068;25.610;2023-05-15T15:43:35;6.03;;;2.42;;
70985;SDS011;58645;43.068;25.610;2023-05-15T15:46:01;5.63;;;2.30;;
70985;SDS011;58645;43.068;25.610;2023-05-15T15:48:27;6.43;;;2.22;;
70985;SDS011;58645;43.068;25.610;2023-05-15T15:50:52;7.85;;;2.65;;
70985;SDS011;58645;43.068;25.610;2023-05-15T15:53:19;5.57;;;2.28;;
70985;SDS011;58645;43.068;25.610;2023-05-15T15:55:45;6.82;;;2.60;;
70985;SDS011;58645;43.068;25.610;2023-05-15T15:58:11;7.88;;;2.25;;